Time;durP1;ratioP1;P1;durP2;ratioP2;P2;SDS_P1;SDS_P2;PMS_P1;PMS_P2;Temp;Humidity;BMP_temperature;BMP_pressure;BME280_temperature;BME280_humidity;BME280_pressure;Samples;Min_cycle;Max_cycle;Signal;HPM_P1;HPM_P2
2023/01/14 03:02:13;;;;;;;10.17;9.57;;;4.60;99.90;;;;;;5559864;23;20287;-75
2023/01/14 03:04:57;;;;;;;11.00;10.20;;;4.60;99.90;;;;;;4946481;28;20704;-76
2023/01/14 03:07:31;;;;;;;10.20;9.50;;;4.60;99.90;;;;;;4978352;28;20583;-77
2023/01/14 03:10:04;;;;;;;11.33;10.00;;;4.50;99.90;;;;;;4985515;28;20280;-77
2023/01/14 03:12:39;;;;;;;10.03;9.40;;;4.50;99.90;;;;;;4975144;28;20220;-78
2023/01/14 03:15:14;;;;;;;10.23;9.47;;;4.50;99.90;;;;;;4981934;28;20189;-78
2023/01/14 03:17:48;;;;;;;10.03;9.33;;;4.50;99.90;;;;;;4981223;28;20214;-78
2023/01/14 03:20:20;;;;;;;10.10;9.50;;;4.40;99.90;;;;;;4979315;28;20712;-77
2023/01/14 03:22:49;;;;;;;10.23;9.57;;;4.40;99.90;;;;;;4982613;28;20317;-78
2023/01/14 03:25:17;;;;;;;10.20;9.40;;;4.40;99.90;;;;;;4983203;28;20221;-78
2023/01/14 03:27:50;;;;;;;9.87;9.27;;;4.40;99.90;;;;;;4982759;28;20198;-76
2023/01/14 03:30:24;;;;;;;10.77;10.07;;;4.40;99.90;;;;;;4981825;28;20205;-77
2023/01/14 03:32:57;;;;;;;10.17;9.57;;;4.40;99.90;;;;;;4982357;28;20466;-78
2023/01/14 03:35:27;;;;;;;11.07;10.07;;;4.40;99.90;;;;;;4984749;28;20289;-77
2023/01/14 03:38:01;;;;;;;10.40;9.50;;;4.30;99.90;;;;;;4982228;28;20201;-77
2023/01/14 03:40:31;;;;;;;10.10;9.50;;;4.30;99.90;;;;;;4978310;28;20642;-77
2023/01/14 03:43:02;;;;;;;10.20;9.60;;;4.30;99.90;;;;;;4983938;28;20225;-77
2023/01/14 03:45:30;;;;;;;10.60;9.90;;;4.30;99.90;;;;;;4972359;28;20189;-77
2023/01/14 03:47:59;;;;;;;9.90;9.30;;;4.30;99.90;;;;;;4978167;28;20662;-77
2023/01/14 03:50:40;;;;;;;10.77;9.80;;;4.30;99.90;;;;;;4985851;28;20197;-77
2023/01/14 03:53:17;;;;;;;10.47;9.77;;;4.30;99.90;;;;;;4981146;28;20260;-77
2023/01/14 03:55:53;;;;;;;10.90;10.10;;;4.40;99.90;;;;;;4981802;28;20206;-76
2023/01/14 03:58:26;;;;;;;10.67;9.90;;;4.40;99.90;;;;;;4982583;28;20666;-78
2023/01/14 04:00:56;;;;;;;11.20;10.40;;;4.40;99.90;;;;;;4982493;28;20249;-77
2023/01/14 04:03:26;;;;;;;10.47;9.70;;;4.50;99.90;;;;;;4983139;28;20233;-77
2023/01/14 04:05:54;;;;;;;10.37;9.60;;;4.50;99.90;;;;;;4980399;28;20198;-83
2023/01/14 04:08:22;;;;;;;10.60;9.63;;;4.50;99.90;;;;;;4983613;28;20213;-80
2023/01/14 04:10:49;;;;;;;10.77;9.87;;;4.50;99.90;;;;;;4971075;28;20288;-82
2023/01/14 04:16:01;;;;;;;11.07;10.27;;;4.30;99.90;;;;;;4972326;28;20202;-82
2023/01/14 04:18:29;;;;;;;10.40;9.80;;;4.30;99.90;;;;;;4965250;28;20203;-82
2023/01/14 04:20:56;;;;;;;10.27;9.57;;;4.30;99.90;;;;;;4972918;28;20273;-82
2023/01/14 04:23:23;;;;;;;10.40;9.70;;;4.20;99.90;;;;;;4979932;28;20201;-82
2023/01/14 04:25:56;;;;;;;10.87;9.97;;;4.20;99.90;;;;;;4968336;28;20206;-82
2023/01/14 04:28:23;;;;;;;10.30;9.70;;;4.20;99.90;;;;;;4976272;28;20214;-82
2023/01/14 04:30:50;;;;;;;10.70;9.90;;;4.20;99.90;;;;;;4968308;28;20215;-82
2023/01/14 04:33:17;;;;;;;10.57;9.87;;;4.30;99.90;;;;;;4967959;28;20198;-82
2023/01/14 04:35:48;;;;;;;10.90;10.10;;;4.40;99.90;;;;;;4970845;28;20202;-82
2023/01/14 04:38:15;;;;;;;11.53;10.33;;;4.40;99.90;;;;;;4971890;28;20198;-82
2023/01/14 04:40:42;;;;;;;11.17;10.27;;;4.50;99.90;;;;;;4978069;28;20229;-81
2023/01/14 04:43:08;;;;;;;11.27;10.30;;;4.60;99.90;;;;;;4977832;28;20197;-82
2023/01/14 04:45:35;;;;;;;11.83;10.83;;;4.60;99.90;;;;;;4970759;28;20245;-81
2023/01/14 04:48:02;;;;;;;11.67;10.60;;;4.70;99.90;;;;;;4967860;28;20251;-82
2023/01/14 04:50:33;;;;;;;11.30;10.60;;;4.70;99.90;;;;;;4981582;28;20197;-81
2023/01/14 04:53:10;;;;;;;11.30;10.23;;;4.80;99.90;;;;;;4981726;28;20228;-81
2023/01/14 04:55:39;;;;;;;11.67;10.53;;;4.80;99.90;;;;;;4980886;28;20201;-81
2023/01/14 04:58:07;;;;;;;11.10;10.30;;;4.80;99.90;;;;;;4982994;28;20209;-80
2023/01/14 05:00:35;;;;;;;12.17;11.17;;;4.80;99.90;;;;;;4980451;28;20265;-82
2023/01/14 05:03:03;;;;;;;11.03;10.27;;;4.70;99.90;;;;;;4983181;28;20193;-81
2023/01/14 05:05:30;;;;;;;10.67;9.80;;;4.70;99.90;;;;;;4963006;28;20605;-81
2023/01/14 05:07:57;;;;;;;11.00;9.60;;;4.70;99.90;;;;;;4983329;28;20612;-79
2023/01/14 05:10:25;;;;;;;10.77;9.90;;;4.70;99.90;;;;;;4982182;28;20209;-77
2023/01/14 05:12:58;;;;;;;10.90;9.90;;;4.70;99.90;;;;;;4972968;28;20202;-80
2023/01/14 05:15:26;;;;;;;11.10;9.83;;;4.70;99.90;;;;;;4979442;28;20252;-77
2023/01/14 05:17:53;;;;;;;11.77;10.07;;;4.70;99.90;;;;;;4982145;28;20194;-77
2023/01/14 05:20:20;;;;;;;11.13;10.20;;;4.70;99.90;;;;;;4979521;28;20256;-77
2023/01/14 05:22:47;;;;;;;11.00;10.10;;;4.70;99.90;;;;;;4976930;28;20245;-77
2023/01/14 05:25:15;;;;;;;11.87;11.07;;;4.70;99.90;;;;;;4982546;28;20694;-78
2023/01/14 05:27:43;;;;;;;11.73;10.57;;;4.70;99.90;;;;;;4982337;28;20724;-77
2023/01/14 05:30:11;;;;;;;12.10;11.00;;;4.70;99.90;;;;;;4982513;28;20202;-77
2023/01/14 05:32:38;;;;;;;12.40;10.53;;;4.70;99.90;;;;;;4973835;28;20291;-77
2023/01/14 05:35:05;;;;;;;11.20;10.53;;;4.70;99.90;;;;;;4981872;28;20256;-77
2023/01/14 05:37:33;;;;;;;12.60;11.17;;;4.70;99.90;;;;;;4980340;28;20248;-76
2023/01/14 05:39:59;;;;;;;11.60;10.80;;;4.70;99.90;;;;;;4983039;28;20256;-76
2023/01/14 05:47:57;;;;;;;12.07;11.17;;;4.80;99.90;;;;;;4983714;28;20243;-77
2023/01/14 05:50:24;;;;;;;11.83;10.90;;;4.90;99.90;;;;;;4979827;28;20886;-77
2023/01/14 05:52:50;;;;;;;12.20;11.03;;;4.90;99.90;;;;;;4988694;28;20277;-77
2023/01/14 05:55:17;;;;;;;12.37;11.50;;;4.90;99.90;;;;;;4990866;28;20225;-77
2023/01/14 05:57:44;;;;;;;12.63;11.57;;;4.90;99.90;;;;;;4979733;28;20205;-79
2023/01/14 06:06:20;;;;;;;12.77;11.40;;;5.00;99.90;;;;;;4982732;28;20659;-78
2023/01/14 06:08:30;;;;;;;12.23;11.03;;;5.10;99.90;;;;;;4976275;28;20236;-82
2023/01/14 06:10:58;;;;;;;11.60;10.53;;;5.10;99.90;;;;;;4976096;28;20233;-80
2023/01/14 06:13:25;;;;;;;11.37;10.30;;;5.10;99.90;;;;;;4977814;28;20285;-78
2023/01/14 06:15:55;;;;;;;11.60;10.60;;;5.20;99.90;;;;;;4977762;28;20198;-79
2023/01/14 06:18:23;;;;;;;14.30;12.20;;;5.20;99.90;;;;;;4986428;28;20206;-79
2023/01/14 06:20:50;;;;;;;14.30;10.70;;;5.30;99.90;;;;;;4989517;28;20578;-80
2023/01/14 06:23:17;;;;;;;11.97;10.73;;;5.20;99.90;;;;;;4985852;28;20772;-80
2023/01/14 06:25:45;;;;;;;11.57;10.53;;;5.30;99.90;;;;;;4974878;28;20214;-80
2023/01/14 06:28:12;;;;;;;11.40;10.50;;;5.30;99.90;;;;;;4977633;28;20206;-80
2023/01/14 06:30:39;;;;;;;13.03;11.43;;;5.30;99.90;;;;;;4975584;28;20273;-77
2023/01/14 06:33:08;;;;;;;12.10;11.00;;;5.30;99.90;;;;;;4979342;28;20199;-77
2023/01/14 06:35:35;;;;;;;12.07;10.93;;;5.30;99.90;;;;;;4988123;28;20248;-77
2023/01/14 06:38:02;;;;;;;13.10;10.87;;;5.30;99.90;;;;;;4985081;28;20201;-77
2023/01/14 06:40:28;;;;;;;14.53;11.70;;;5.20;99.90;;;;;;4975403;28;20221;-77
2023/01/14 06:42:56;;;;;;;14.63;11.30;;;5.30;99.90;;;;;;4988306;28;20252;-79
2023/01/14 06:45:24;;;;;;;12.37;11.47;;;5.30;99.90;;;;;;4987813;28;20230;-79
2023/01/14 06:47:51;;;;;;;11.80;10.90;;;5.30;99.90;;;;;;4987558;28;20205;-78
2023/01/14 06:50:19;;;;;;;12.13;11.20;;;5.20;99.90;;;;;;4986926;28;20260;-77
2023/01/14 06:52:48;;;;;;;12.37;11.27;;;5.20;99.90;;;;;;4988236;28;20276;-77
2023/01/14 06:55:15;;;;;;;15.63;11.30;;;5.30;99.90;;;;;;4989320;28;20204;-77
2023/01/14 06:57:43;;;;;;;12.33;11.17;;;5.30;99.90;;;;;;4990081;28;20232;-77
2023/01/14 07:00:11;;;;;;;13.23;12.17;;;5.40;99.90;;;;;;4988257;28;20771;-78
2023/01/14 07:02:38;;;;;;;12.43;11.17;;;5.50;99.90;;;;;;4976224;28;20285;-77
2023/01/14 07:05:06;;;;;;;12.77;11.43;;;5.50;99.90;;;;;;4976897;28;20210;-77
2023/01/14 07:07:34;;;;;;;12.43;11.43;;;5.60;99.90;;;;;;4987709;28;20194;-77
2023/01/14 07:10:01;;;;;;;12.27;10.97;;;5.60;99.90;;;;;;4987068;28;20735;-79
2023/01/14 07:12:28;;;;;;;12.27;11.27;;;5.60;99.90;;;;;;4985682;28;20271;-78
2023/01/14 07:14:55;;;;;;;13.23;11.60;;;5.70;99.90;;;;;;4976885;28;20194;-84
2023/01/14 07:17:21;;;;;;;12.70;11.70;;;5.70;99.90;;;;;;4986224;28;20230;-83
2023/01/14 07:19:48;;;;;;;11.43;10.67;;;5.70;99.90;;;;;;4985887;28;20253;-85
2023/01/14 07:22:15;;;;;;;12.23;11.37;;;5.80;99.90;;;;;;4984049;28;20225;-77
2023/01/14 07:24:44;;;;;;;12.70;11.80;;;5.90;99.90;;;;;;4979095;28;20273;-82
2023/01/14 07:27:11;;;;;;;13.20;11.97;;;5.90;99.90;;;;;;4978357;28;20201;-77
2023/01/14 07:29:37;;;;;;;12.73;11.63;;;5.90;99.90;;;;;;4985413;28;20669;-76
2023/01/14 07:32:04;;;;;;;12.20;11.40;;;6.00;99.90;;;;;;4980670;28;20217;-76
2023/01/14 07:34:31;;;;;;;11.97;11.07;;;5.90;99.90;;;;;;4985084;28;20199;-78
2023/01/14 07:36:58;;;;;;;13.57;12.37;;;6.00;99.90;;;;;;4983122;28;20223;-85
2023/01/14 07:39:25;;;;;;;12.37;11.50;;;6.00;99.90;;;;;;4979176;28;20207;-79
2023/01/14 07:41:53;;;;;;;12.43;11.37;;;6.10;99.90;;;;;;4974775;28;20603;-83
2023/01/14 07:44:25;;;;;;;12.60;11.70;;;6.20;99.90;;;;;;4980660;28;20198;-77
2023/01/14 07:46:53;;;;;;;13.63;12.13;;;6.20;99.90;;;;;;4986194;28;20315;-77
2023/01/14 07:49:20;;;;;;;12.13;11.13;;;6.20;99.90;;;;;;4986522;28;20291;-76
2023/01/14 07:51:47;;;;;;;12.47;11.23;;;6.30;99.90;;;;;;4985927;28;20226;-77
2023/01/14 07:54:13;;;;;;;12.67;11.57;;;6.30;99.90;;;;;;4985348;28;20607;-76
2023/01/14 07:56:40;;;;;;;12.70;11.50;;;6.40;99.90;;;;;;4989333;28;20192;-76
2023/01/14 07:59:09;;;;;;;12.33;11.33;;;6.40;99.90;;;;;;4982246;28;20258;-81
2023/01/14 08:01:36;;;;;;;12.77;11.47;;;6.50;99.90;;;;;;4972938;28;20263;-79
2023/01/14 08:04:03;;;;;;;12.73;11.63;;;6.50;99.90;;;;;;4975148;28;20211;-83
2023/01/14 08:06:30;;;;;;;13.13;11.80;;;6.60;99.90;;;;;;4971433;28;20243;-82
2023/01/14 08:08:58;;;;;;;12.33;11.17;;;6.60;99.90;;;;;;4974274;28;20581;-83
2023/01/14 08:11:25;;;;;;;12.23;11.17;;;6.70;99.90;;;;;;4976809;28;20218;-80
2023/01/14 08:13:52;;;;;;;11.70;10.53;;;6.70;99.90;;;;;;4982564;28;20194;-81
2023/01/14 08:16:21;;;;;;;11.50;10.40;;;6.70;99.90;;;;;;4987166;28;20208;-81
2023/01/14 08:18:48;;;;;;;11.20;10.30;;;6.70;99.90;;;;;;4981491;28;20594;-81
2023/01/14 08:21:15;;;;;;;11.60;10.50;;;6.80;99.90;;;;;;4982396;28;20223;-80
2023/01/14 08:23:42;;;;;;;15.87;10.70;;;6.70;99.90;;;;;;4982834;28;20200;-81
2023/01/14 08:26:11;;;;;;;10.97;9.97;;;6.60;99.90;;;;;;4981582;28;20692;-82
2023/01/14 08:28:39;;;;;;;11.20;10.13;;;6.70;99.90;;;;;;4977981;28;20209;-81
2023/01/14 08:31:08;;;;;;;10.60;9.70;;;6.70;99.90;;;;;;4982957;28;20289;-81
2023/01/14 08:33:36;;;;;;;10.77;9.90;;;6.80;99.90;;;;;;4981417;28;20228;-81
2023/01/14 08:36:06;;;;;;;10.93;9.80;;;6.90;99.90;;;;;;4981226;28;20193;-80
2023/01/14 08:38:32;;;;;;;10.57;9.87;;;7.10;99.90;;;;;;4981650;28;20297;-80
2023/01/14 08:41:02;;;;;;;11.20;10.17;;;7.20;99.90;;;;;;4980690;28;20300;-80
2023/01/14 08:43:29;;;;;;;11.20;10.40;;;7.20;99.90;;;;;;4980140;28;20200;-81
2023/01/14 08:45:56;;;;;;;11.40;10.47;;;7.30;99.90;;;;;;4980889;28;20206;-81
2023/01/14 08:48:23;;;;;;;11.10;10.00;;;7.30;99.90;;;;;;4984368;28;20322;-81
2023/01/14 08:50:51;;;;;;;10.03;9.40;;;7.30;99.90;;;;;;4980710;28;20220;-81
2023/01/14 08:53:17;;;;;;;9.97;9.20;;;7.30;99.90;;;;;;4977801;28;20202;-81
2023/01/14 08:55:44;;;;;;;10.70;9.80;;;7.30;99.90;;;;;;4979754;28;20633;-82
2023/01/14 08:58:13;;;;;;;10.27;9.57;;;7.40;99.90;;;;;;4988823;28;20197;-81
2023/01/14 09:00:40;;;;;;;10.77;9.97;;;7.40;99.90;;;;;;4981978;28;20193;-80
2023/01/14 09:03:06;;;;;;;10.27;9.37;;;7.40;99.90;;;;;;4977021;28;20244;-81
2023/01/14 09:05:35;;;;;;;10.53;9.73;;;7.30;99.90;;;;;;4981511;28;20222;-82
2023/01/14 09:19:05;;;;;;;10.60;9.70;;;7.50;99.90;;;;;;4971875;28;20185;-80
2023/01/14 09:21:31;;;;;;;10.70;9.90;;;7.50;99.90;;;;;;4976773;28;20218;-78
2023/01/14 09:24:00;;;;;;;10.80;9.80;;;7.60;99.90;;;;;;4972713;28;20198;-78
2023/01/14 09:26:26;;;;;;;10.73;9.73;;;7.60;99.90;;;;;;4981171;28;20288;-79
2023/01/14 09:28:53;;;;;;;10.50;9.73;;;7.70;99.90;;;;;;4982218;28;20252;-80
2023/01/14 09:31:20;;;;;;;10.40;9.60;;;7.70;99.90;;;;;;4983069;28;20288;-79
2023/01/14 09:33:47;;;;;;;9.90;9.20;;;7.80;99.90;;;;;;4981201;28;20201;-78
2023/01/14 09:36:14;;;;;;;9.90;9.20;;;7.80;99.90;;;;;;4982064;28;20232;-79
2023/01/14 09:38:40;;;;;;;10.27;9.47;;;7.80;99.90;;;;;;4981417;28;20201;-82
2023/01/14 09:41:23;;;;;;;10.37;9.40;;;7.90;99.90;;;;;;4979662;28;20701;-77
2023/01/14 09:43:50;;;;;;;10.20;9.40;;;7.90;99.90;;;;;;4980319;28;20736;-78
2023/01/14 09:46:17;;;;;;;10.00;9.23;;;7.90;99.90;;;;;;4984441;28;20214;-78
2023/01/14 09:48:44;;;;;;;9.77;9.13;;;7.90;99.90;;;;;;4974369;28;20265;-79
2023/01/14 09:51:29;;;;;;;10.40;9.60;;;8.00;99.90;;;;;;4975297;28;20287;-81
2023/01/14 09:54:05;;;;;;;10.37;9.60;;;8.10;99.90;;;;;;4979155;28;20201;-76
2023/01/14 09:56:39;;;;;;;10.50;9.80;;;8.20;99.90;;;;;;4977408;28;20190;-76
2023/01/14 09:59:18;;;;;;;10.40;9.70;;;8.40;99.90;;;;;;4981938;28;20248;-76
2023/01/14 10:01:53;;;;;;;11.00;10.10;;;8.50;99.90;;;;;;4979556;28;20231;-76
2023/01/14 10:04:41;;;;;;;10.10;9.40;;;8.60;99.90;;;;;;4976053;28;20202;-76
2023/01/14 10:07:12;;;;;;;9.90;9.20;;;8.80;99.90;;;;;;4975765;28;20225;-76
2023/01/14 10:09:44;;;;;;;10.93;10.03;;;8.90;99.90;;;;;;4983677;28;20255;-76
2023/01/14 10:12:17;;;;;;;10.30;9.60;;;9.00;99.90;;;;;;4979650;28;20222;-76
2023/01/14 10:14:50;;;;;;;10.53;9.80;;;9.10;99.90;;;;;;4981295;28;20198;-76
2023/01/14 10:17:21;;;;;;;10.60;9.70;;;9.20;99.90;;;;;;4979014;28;20194;-76
2023/01/14 10:19:51;;;;;;;9.90;9.20;;;9.30;99.90;;;;;;4984245;28;20658;-76
2023/01/14 10:22:34;;;;;;;9.90;9.30;;;9.40;99.90;;;;;;4980459;28;20761;-76
2023/01/14 10:25:01;;;;;;;10.00;9.33;;;9.50;99.90;;;;;;4986045;28;20626;-76
2023/01/14 10:27:31;;;;;;;9.87;9.07;;;9.50;99.90;;;;;;4978750;28;20222;-76
2023/01/14 10:30:16;;;;;;;9.50;8.90;;;9.60;99.90;;;;;;4978865;28;20575;-76
2023/01/14 10:32:43;;;;;;;9.37;8.80;;;9.60;99.90;;;;;;4975102;28;20213;-77
2023/01/14 10:35:14;;;;;;;9.40;8.90;;;9.60;99.90;;;;;;4980795;28;20256;-77
2023/01/14 10:37:40;;;;;;;9.80;9.10;;;9.70;99.90;;;;;;4980768;28;20198;-76
2023/01/14 10:40:18;;;;;;;9.57;8.97;;;9.70;99.90;;;;;;4982515;28;20198;-76
2023/01/14 10:42:47;;;;;;;9.80;9.10;;;9.80;99.90;;;;;;4980064;28;20216;-76
2023/01/14 10:45:14;;;;;;;10.60;9.80;;;9.80;99.90;;;;;;4976047;28;20197;-76
2023/01/14 10:47:42;;;;;;;10.17;9.53;;;9.80;99.90;;;;;;4979394;28;20202;-77
2023/01/14 10:50:18;;;;;;;9.97;9.30;;;9.90;99.90;;;;;;4979910;28;20205;-77
2023/01/14 10:52:45;;;;;;;9.93;9.23;;;9.90;99.90;;;;;;4983639;28;20693;-76
2023/01/14 10:55:16;;;;;;;10.13;9.33;;;9.80;99.90;;;;;;4984323;28;20280;-77
2023/01/14 10:57:49;;;;;;;10.13;9.50;;;9.80;99.90;;;;;;4978598;28;20198;-77
2023/01/14 11:00:35;;;;;;;10.50;9.70;;;9.80;99.90;;;;;;4984506;28;20231;-77
2023/01/14 11:03:04;;;;;;;10.30;9.60;;;9.70;99.90;;;;;;4980882;28;20272;-77
2023/01/14 11:05:33;;;;;;;10.77;9.87;;;9.70;99.90;;;;;;4986125;28;20234;-77
2023/01/14 11:08:06;;;;;;;10.10;9.40;;;9.70;99.90;;;;;;4986463;28;20203;-76
2023/01/14 11:10:33;;;;;;;10.50;9.90;;;9.80;99.90;;;;;;4972457;28;20213;-76
2023/01/14 11:13:24;;;;;;;10.30;9.70;;;9.90;99.90;;;;;;4980343;28;20724;-77
2023/01/14 11:15:52;;;;;;;10.43;9.53;;;9.90;99.90;;;;;;4980987;28;20205;-76
2023/01/14 11:18:27;;;;;;;10.40;9.80;;;10.00;99.90;;;;;;4982053;28;20198;-77
2023/01/14 11:20:59;;;;;;;9.90;9.30;;;9.90;99.90;;;;;;4981041;28;20698;-77
2023/01/14 11:23:29;;;;;;;10.40;9.70;;;9.90;99.90;;;;;;4986168;28;20566;-77
2023/01/14 11:25:58;;;;;;;10.27;9.50;;;9.80;99.90;;;;;;4983827;28;20211;-76
2023/01/14 11:28:26;;;;;;;10.27;9.47;;;9.70;99.90;;;;;;4984385;28;20232;-76
2023/01/14 11:30:55;;;;;;;10.07;9.47;;;9.60;99.90;;;;;;4980970;28;20221;-76
2023/01/14 11:33:24;;;;;;;10.73;10.03;;;9.70;99.90;;;;;;4978953;28;20235;-77
2023/01/14 11:35:53;;;;;;;10.40;9.60;;;9.70;99.90;;;;;;4988803;28;20240;-80
2023/01/14 11:38:22;;;;;;;10.40;9.70;;;9.60;99.90;;;;;;4975315;28;20218;-79
2023/01/14 11:43:53;;;;;;;9.97;9.20;;;9.60;99.90;;;;;;4989660;28;20198;-86
2023/01/14 11:46:20;;;;;;;10.80;10.00;;;9.60;99.90;;;;;;4980382;28;20785;-86
2023/01/14 11:49:05;;;;;;;10.50;9.70;;;9.50;99.90;;;;;;4975400;28;20206;-86
2023/01/14 11:51:38;;;;;;;10.60;9.80;;;9.60;99.90;;;;;;4990596;28;20218;-78
2023/01/14 11:54:15;;;;;;;11.00;10.10;;;9.50;99.90;;;;;;4982930;28;20204;-77
2023/01/14 11:56:43;;;;;;;11.03;10.10;;;9.50;99.90;;;;;;4977814;28;20646;-77
2023/01/14 11:59:20;;;;;;;16.13;11.70;;;9.50;99.90;;;;;;4984734;28;20207;-77
2023/01/14 12:01:51;;;;;;;12.93;11.00;;;9.40;99.90;;;;;;4983195;28;20234;-77
2023/01/14 12:04:32;;;;;;;15.67;12.40;;;9.40;99.90;;;;;;4983943;28;20296;-77
2023/01/14 12:07:02;;;;;;;11.70;10.63;;;9.40;99.90;;;;;;4983987;28;20767;-77
2023/01/14 12:09:38;;;;;;;12.10;11.00;;;9.30;99.90;;;;;;4971394;28;20249;-78
2023/01/14 12:12:11;;;;;;;11.00;10.10;;;9.40;99.90;;;;;;4979511;28;20222;-79
2023/01/14 12:17:31;;;;;;;10.43;9.70;;;9.30;99.90;;;;;;4987916;28;20189;-78
2023/01/14 12:20:05;;;;;;;11.07;10.17;;;9.30;99.90;;;;;;4970072;28;20198;-79
2023/01/14 12:22:37;;;;;;;10.80;9.97;;;9.20;99.90;;;;;;4976516;28;20651;-80
2023/01/14 12:25:12;;;;;;;11.27;10.30;;;9.20;99.90;;;;;;4982578;28;20260;-79
2023/01/14 12:27:51;;;;;;;11.33;10.40;;;9.20;99.90;;;;;;4985323;28;20282;-79
2023/01/14 12:30:37;;;;;;;11.30;10.43;;;9.10;99.90;;;;;;4977837;28;20226;-79
2023/01/14 12:33:12;;;;;;;11.33;10.33;;;9.10;99.90;;;;;;4983988;28;20197;-78
2023/01/14 12:35:44;;;;;;;11.27;10.27;;;9.10;99.90;;;;;;4985260;28;20204;-80
2023/01/14 12:46:42;;;;;;;11.67;10.60;;;9.00;99.90;;;;;;4977854;28;20592;-79
2023/01/14 12:49:09;;;;;;;11.40;10.50;;;9.00;99.90;;;;;;4984055;28;20272;-79
2023/01/14 12:51:40;;;;;;;11.20;10.30;;;8.90;99.90;;;;;;4979045;28;20221;-78
2023/01/14 12:54:09;;;;;;;11.53;10.50;;;8.90;99.90;;;;;;4984417;28;20692;-78
2023/01/14 12:56:43;;;;;;;11.40;10.40;;;8.90;99.90;;;;;;4986011;28;20689;-78
2023/01/14 12:59:22;;;;;;;11.17;10.30;;;8.90;99.90;;;;;;4983165;28;20202;-78
2023/01/14 13:01:53;;;;;;;11.43;10.30;;;8.90;99.90;;;;;;4978653;28;20245;-77
2023/01/14 13:04:23;;;;;;;11.43;10.53;;;8.90;99.90;;;;;;4974334;28;20683;-77
2023/01/14 13:06:55;;;;;;;11.03;10.23;;;8.90;99.90;;;;;;4980483;28;20202;-77
2023/01/14 13:09:27;;;;;;;10.53;9.83;;;8.90;99.90;;;;;;4978520;28;20212;-76
2023/01/14 13:11:55;;;;;;;10.37;9.67;;;8.90;99.90;;;;;;4975699;28;20268;-78
2023/01/14 13:14:35;;;;;;;11.03;10.00;;;8.90;99.90;;;;;;4965269;28;20670;-78
2023/01/14 13:17:08;;;;;;;10.40;9.70;;;8.90;99.90;;;;;;4965658;28;20202;-76
2023/01/14 13:28:00;;;;;;;10.40;9.70;;;9.00;99.90;;;;;;4977303;28;20216;-76
2023/01/14 13:30:45;;;;;;;10.40;9.70;;;9.00;99.90;;;;;;4979470;28;20193;-77
2023/01/14 13:33:26;;;;;;;10.17;9.27;;;9.10;99.90;;;;;;4972192;28;20206;-77
2023/01/14 13:36:17;;;;;;;11.00;9.70;;;9.10;99.90;;;;;;4961300;28;20209;-77
2023/01/14 13:38:47;;;;;;;10.50;9.60;;;9.20;99.90;;;;;;4966986;28;20229;-77
2023/01/14 13:41:35;;;;;;;10.50;9.70;;;9.30;99.90;;;;;;4962604;28;20610;-77
2023/01/14 13:44:03;;;;;;;10.30;9.43;;;9.40;99.90;;;;;;4971758;28;20253;-77
2023/01/14 13:46:34;;;;;;;10.00;9.13;;;9.50;99.90;;;;;;4969690;28;20210;-77
2023/01/14 13:49:16;;;;;;;11.00;10.10;;;9.50;99.90;;;;;;4969051;28;20255;-77
2023/01/14 13:51:47;;;;;;;11.23;10.33;;;9.50;99.90;;;;;;4971970;28;20218;-77
2023/01/14 13:54:23;;;;;;;10.63;9.77;;;9.50;99.90;;;;;;4966937;28;20205;-77
2023/01/14 13:56:51;;;;;;;10.50;9.80;;;9.50;99.90;;;;;;4972299;28;20267;-77
2023/01/14 13:59:25;;;;;;;10.10;9.40;;;9.50;99.90;;;;;;4975451;28;20229;-77
2023/01/14 14:01:52;;;;;;;10.43;9.53;;;9.50;99.90;;;;;;4976896;28;20249;-78
2023/01/14 14:04:52;;;;;;;10.30;9.60;;;9.50;99.90;;;;;;4972400;28;20265;-76
2023/01/14 14:07:55;;;;;;;10.10;9.40;;;9.40;99.90;;;;;;4972187;28;20213;-78
2023/01/14 14:10:28;;;;;;;10.07;9.30;;;9.40;99.90;;;;;;4973901;28;20735;-77
2023/01/14 14:15:47;;;;;;;9.93;9.23;;;9.30;99.90;;;;;;4971793;28;20190;-77
2023/01/14 14:18:23;;;;;;;9.67;8.97;;;9.30;99.90;;;;;;4974602;28;20233;-77
2023/01/14 14:20:52;;;;;;;9.67;8.93;;;9.20;99.90;;;;;;4970532;28;20214;-77
2023/01/14 14:23:24;;;;;;;10.30;9.60;;;9.20;99.90;;;;;;4971090;28;20233;-77
2023/01/14 14:25:54;;;;;;;10.03;9.23;;;9.20;99.90;;;;;;4962214;28;20923;-78
2023/01/14 14:28:24;;;;;;;10.30;9.40;;;9.20;99.90;;;;;;4966679;28;20634;-78
2023/01/14 14:30:54;;;;;;;10.00;9.20;;;9.20;99.90;;;;;;4975847;28;20724;-77
2023/01/14 14:33:33;;;;;;;9.47;8.87;;;9.20;99.90;;;;;;4981374;28;20206;-77
2023/01/14 14:36:01;;;;;;;10.20;9.30;;;9.20;99.90;;;;;;4978678;28;20205;-77
2023/01/14 14:38:28;;;;;;;10.30;9.40;;;9.20;99.90;;;;;;4964399;28;20217;-77
2023/01/14 14:40:56;;;;;;;9.57;8.93;;;9.20;99.90;;;;;;4977729;28;20756;-78
2023/01/14 14:43:27;;;;;;;10.00;9.23;;;9.20;99.90;;;;;;4964014;28;20198;-77
2023/01/14 14:46:02;;;;;;;10.43;9.63;;;9.20;99.90;;;;;;4976330;28;20252;-77
2023/01/14 14:48:31;;;;;;;10.20;9.50;;;9.20;99.90;;;;;;4974057;28;20213;-80
2023/01/14 14:50:58;;;;;;;9.77;9.17;;;9.10;99.90;;;;;;4989497;28;20229;-79
2023/01/14 14:53:32;;;;;;;10.10;9.20;;;9.20;99.90;;;;;;4985499;28;20645;-77
2023/01/14 14:56:03;;;;;;;10.30;9.60;;;9.20;99.90;;;;;;4984738;28;20201;-78
2023/01/14 14:58:30;;;;;;;10.57;9.70;;;9.20;99.90;;;;;;4967319;28;20198;-77
2023/01/14 15:01:00;;;;;;;10.43;9.63;;;9.20;99.90;;;;;;4970952;28;20322;-78
2023/01/14 15:03:30;;;;;;;10.03;9.30;;;9.20;99.90;;;;;;4967964;28;20198;-77
2023/01/14 15:05:58;;;;;;;10.30;9.57;;;9.20;99.90;;;;;;4975021;28;20643;-77
2023/01/14 15:08:28;;;;;;;10.33;9.63;;;9.30;99.90;;;;;;4982705;28;20248;-77
2023/01/14 15:10:56;;;;;;;9.40;8.80;;;9.40;99.90;;;;;;4968770;28;20576;-77
2023/01/14 15:13:29;;;;;;;9.37;8.77;;;9.50;99.90;;;;;;4970674;28;20202;-77
2023/01/14 15:16:04;;;;;;;9.27;8.67;;;9.60;99.90;;;;;;4978302;28;20202;-77
2023/01/14 15:18:35;;;;;;;10.07;9.37;;;9.60;99.90;;;;;;4975412;28;20686;-81
2023/01/14 15:21:13;;;;;;;9.57;8.97;;;9.60;99.90;;;;;;4963174;28;20266;-82
2023/01/14 15:23:45;;;;;;;10.10;9.40;;;9.60;99.90;;;;;;4976779;28;20219;-83
2023/01/14 15:26:23;;;;;;;9.90;9.20;;;9.70;99.90;;;;;;4985781;28;20205;-79
2023/01/14 15:28:53;;;;;;;9.90;9.30;;;9.70;99.90;;;;;;4986347;28;20268;-79
2023/01/14 15:31:24;;;;;;;9.83;9.13;;;9.60;99.90;;;;;;4985865;28;20312;-79
2023/01/14 15:34:02;;;;;;;9.47;8.87;;;9.60;99.90;;;;;;4978290;28;20272;-79
2023/01/14 15:36:30;;;;;;;9.57;8.90;;;9.60;99.90;;;;;;4982745;28;20197;-82
2023/01/14 15:38:58;;;;;;;10.67;9.87;;;9.60;99.90;;;;;;4979895;28;20651;-80
2023/01/14 15:41:25;;;;;;;11.10;10.37;;;9.50;99.90;;;;;;4991012;28;20638;-82
2023/01/14 15:43:53;;;;;;;10.43;9.83;;;9.50;99.90;;;;;;4988736;28;20208;-77
2023/01/14 15:46:25;;;;;;;10.00;9.40;;;9.50;99.90;;;;;;4977476;28;20202;-77
2023/01/14 15:48:54;;;;;;;10.10;9.40;;;9.50;99.90;;;;;;4983944;28;20592;-77
2023/01/14 15:51:22;;;;;;;9.87;9.20;;;9.40;99.90;;;;;;4985751;28;20714;-77
2023/01/14 15:53:48;;;;;;;9.40;8.90;;;9.40;99.90;;;;;;4985642;28;20190;-78
2023/01/14 15:56:16;;;;;;;9.73;9.07;;;9.30;99.90;;;;;;4985388;28;20245;-78
2023/01/14 15:59:12;;;;;;;10.10;9.50;;;9.30;99.90;;;;;;4985143;28;20252;-77
2023/01/14 16:01:52;;;;;;;10.00;9.40;;;9.30;99.90;;;;;;4975288;28;20214;-77
2023/01/14 16:04:22;;;;;;;10.17;9.57;;;9.20;99.90;;;;;;4969650;28;20202;-77
2023/01/14 16:06:53;;;;;;;8.90;8.40;;;9.20;99.90;;;;;;4972855;28;20226;-77
2023/01/14 16:09:22;;;;;;;9.00;8.50;;;9.20;99.90;;;;;;4971834;28;20757;-78
2023/01/14 16:11:52;;;;;;;9.50;8.90;;;9.10;99.90;;;;;;4971557;28;20292;-77
2023/01/14 16:14:34;;;;;;;9.60;9.00;;;9.10;99.90;;;;;;4966875;28;20198;-77
2023/01/14 16:17:01;;;;;;;9.80;9.20;;;9.00;99.90;;;;;;4964540;28;20206;-78
2023/01/14 16:19:28;;;;;;;9.67;9.00;;;9.00;99.90;;;;;;4963828;28;20198;-77
2023/01/14 16:21:54;;;;;;;9.37;8.77;;;9.00;99.90;;;;;;4971407;28;20276;-77
2023/01/14 16:24:21;;;;;;;9.33;8.73;;;9.00;99.90;;;;;;4984393;28;20199;-78
2023/01/14 16:26:48;;;;;;;9.53;8.83;;;9.00;99.90;;;;;;4979051;28;20198;-77
2023/01/14 16:29:15;;;;;;;9.90;9.30;;;9.00;99.90;;;;;;4990097;28;20264;-77
2023/01/14 16:31:44;;;;;;;9.90;9.30;;;9.00;99.90;;;;;;4983063;28;20218;-77
2023/01/14 16:34:11;;;;;;;10.10;9.50;;;9.00;99.90;;;;;;4990283;28;20207;-77
2023/01/14 16:36:38;;;;;;;10.37;9.60;;;9.00;99.90;;;;;;4974512;28;20206;-77
2023/01/14 16:39:10;;;;;;;10.17;9.47;;;9.00;99.90;;;;;;4975206;28;20229;-77
2023/01/14 16:41:40;;;;;;;9.87;9.20;;;8.90;99.90;;;;;;4981068;28;20221;-78
2023/01/14 16:44:07;;;;;;;9.93;9.30;;;8.90;99.90;;;;;;4985227;28;20563;-77
2023/01/14 16:46:34;;;;;;;9.37;8.77;;;8.90;99.90;;;;;;4992064;28;20619;-78
2023/01/14 16:49:02;;;;;;;9.87;9.17;;;8.90;99.90;;;;;;4982994;28;20214;-78
2023/01/14 16:51:30;;;;;;;9.73;9.13;;;8.80;99.90;;;;;;4971740;28;20221;-80
2023/01/14 16:53:57;;;;;;;11.43;10.60;;;8.80;99.90;;;;;;4984538;28;20285;-79